createdAt,value
2023-05-12T00:00:11.230Z,37.50
2023-05-12T00:01:11.198Z,37.49
2023-05-12T00:02:11.263Z,37.49
2023-05-12T00:03:11.280Z,37.50
2023-05-12T00:04:11.364Z,37.50
2023-05-12T00:05:11.193Z,37.48
2023-05-12T00:06:11.171Z,37.48
2023-05-12T00:07:11.166Z,37.49
2023-05-12T00:08:11.156Z,37.50
2023-05-12T00:09:11.165Z,37.50
2023-05-12T00:10:11.165Z,37.52
2023-05-12T00:11:11.126Z,37.53
2023-05-12T00:12:11.146Z,37.54
2023-05-12T00:13:11.167Z,37.52
2023-05-12T00:14:11.089Z,37.53
2023-05-12T00:15:11.120Z,37.51
2023-05-12T00:16:11.159Z,37.50
2023-05-12T00:17:11.117Z,37.52
2023-05-12T00:18:11.120Z,37.53
2023-05-12T00:19:11.239Z,37.53
2023-05-12T00:20:11.158Z,37.53
2023-05-12T00:21:11.198Z,37.55
2023-05-12T00:22:11.200Z,37.54
2023-05-12T00:23:11.266Z,37.53
2023-05-12T00:24:11.267Z,37.57
2023-05-12T00:25:11.279Z,37.56
2023-05-12T00:26:11.272Z,37.57
2023-05-12T00:27:11.345Z,37.54
2023-05-12T00:28:11.324Z,37.54
2023-05-12T00:29:11.344Z,37.53
2023-05-12T00:30:11.399Z,37.52
2023-05-12T00:31:11.502Z,37.55
2023-05-12T00:32:11.423Z,37.58
2023-05-12T00:33:11.423Z,37.55
2023-05-12T00:34:11.429Z,37.56
2023-05-12T00:35:11.445Z,37.57
2023-05-12T00:36:11.511Z,37.57
2023-05-12T00:37:11.499Z,37.58
2023-05-12T00:38:11.553Z,37.58
2023-05-12T00:39:11.571Z,37.59
2023-05-12T00:40:11.573Z,37.59
2023-05-12T00:41:11.720Z,37.60
2023-05-12T00:42:11.582Z,37.61
2023-05-12T00:43:11.642Z,37.61
2023-05-12T00:44:11.672Z,37.60
2023-05-12T00:45:11.641Z,37.61
2023-05-12T00:46:11.751Z,37.59
2023-05-12T00:47:11.683Z,37.59
2023-05-12T00:48:11.792Z,37.59
2023-05-12T00:49:11.729Z,37.60
2023-05-12T00:50:11.931Z,37.59
2023-05-12T00:51:11.784Z,37.60
2023-05-12T00:52:11.793Z,37.63
2023-05-12T00:53:11.828Z,37.61
2023-05-12T00:54:11.872Z,37.59
2023-05-12T00:55:11.951Z,37.62
2023-05-12T00:56:11.943Z,37.61
2023-05-12T00:57:11.962Z,37.62
2023-05-12T00:58:12.122Z,37.61
2023-05-12T00:59:12.172Z,37.60
2023-05-12T01:00:12.083Z,37.62
2023-05-12T01:01:12.122Z,37.62
2023-05-12T01:02:12.168Z,37.63
2023-05-12T01:03:12.241Z,37.63
2023-05-12T01:04:12.150Z,37.61
2023-05-12T01:05:12.189Z,37.63
2023-05-12T01:06:12.244Z,37.63
2023-05-12T01:07:12.226Z,37.63
2023-05-12T01:08:12.294Z,37.63
2023-05-12T01:09:12.293Z,37.63
2023-05-12T01:10:12.310Z,37.62
2023-05-12T01:11:12.310Z,37.62
2023-05-12T01:12:12.422Z,37.64
2023-05-12T01:13:12.433Z,37.64
2023-05-12T01:14:12.372Z,37.62
2023-05-12T01:15:12.430Z,37.66
2023-05-12T01:16:12.490Z,37.65
2023-05-12T01:17:12.547Z,37.64
2023-05-12T01:18:12.490Z,37.64
2023-05-12T01:19:12.648Z,37.64
2023-05-12T01:20:12.532Z,37.64
2023-05-12T01:21:12.535Z,37.67
2023-05-12T01:22:12.591Z,37.66
2023-05-12T01:23:12.589Z,37.67
2023-05-12T01:24:12.640Z,37.65
2023-05-12T01:25:12.717Z,37.67
2023-05-12T01:26:12.706Z,37.65
2023-05-12T01:27:12.728Z,37.68
2023-05-12T01:28:12.742Z,37.66
2023-05-12T01:29:12.766Z,37.64
2023-05-12T01:30:12.798Z,37.66
2023-05-12T01:31:12.897Z,37.67
2023-05-12T01:32:12.875Z,37.68
2023-05-12T01:33:12.874Z,37.69
2023-05-12T01:34:12.894Z,37.69
2023-05-12T01:35:12.935Z,37.67
2023-05-12T01:36:12.943Z,37.65
2023-05-12T01:37:13.005Z,37.68
2023-05-12T01:38:12.994Z,37.67
2023-05-12T01:39:13.071Z,37.70
2023-05-12T01:40:13.043Z,37.70
2023-05-12T01:41:13.127Z,37.71
2023-05-12T01:42:13.127Z,37.69
2023-05-12T01:43:13.134Z,37.68
2023-05-12T01:44:13.169Z,37.69
2023-05-12T01:45:13.208Z,37.70
2023-05-12T01:46:13.233Z,37.69
2023-05-12T01:47:13.266Z,37.69
2023-05-12T01:48:13.270Z,37.72
2023-05-12T01:49:13.268Z,37.70
2023-05-12T01:50:13.341Z,37.72
2023-05-12T01:51:13.398Z,37.69
2023-05-12T01:52:13.357Z,37.70
2023-05-12T01:53:13.492Z,37.70
2023-05-12T01:54:13.405Z,37.70
2023-05-12T01:55:13.477Z,37.72
2023-05-12T01:56:13.531Z,37.72
2023-05-12T01:57:13.496Z,37.71
2023-05-12T01:58:13.540Z,37.73
2023-05-12T01:59:13.584Z,37.71
2023-05-12T02:00:13.597Z,37.71
2023-05-12T02:01:13.662Z,37.69
2023-05-12T02:02:13.661Z,37.72
2023-05-12T02:03:13.718Z,37.74
2023-05-12T02:04:13.743Z,37.75
2023-05-12T02:05:13.691Z,37.73
2023-05-12T02:06:13.758Z,37.72
2023-05-12T02:07:13.727Z,37.73
2023-05-12T02:08:13.813Z,37.72
2023-05-12T02:09:13.822Z,37.75
2023-05-12T02:10:13.835Z,37.72
2023-05-12T02:11:13.886Z,37.71
2023-05-12T02:12:13.853Z,37.75
2023-05-12T02:13:13.960Z,37.74
2023-05-12T02:14:13.958Z,37.76
2023-05-12T02:15:13.981Z,37.75
2023-05-12T02:16:14.052Z,37.76
2023-05-12T02:17:14.087Z,37.75
2023-05-12T02:18:14.086Z,37.75
2023-05-12T02:19:14.092Z,37.75
2023-05-12T02:20:14.115Z,37.75
2023-05-12T02:21:14.173Z,37.76
2023-05-12T02:22:14.173Z,37.75
2023-05-12T02:23:14.235Z,37.75
2023-05-12T02:24:14.989Z,37.76
2023-05-12T02:25:14.248Z,37.76
2023-05-12T02:26:14.334Z,37.76
2023-05-12T02:27:14.362Z,37.76
2023-05-12T02:28:14.356Z,37.78
2023-05-12T02:29:14.350Z,37.76
2023-05-12T02:30:14.404Z,37.76
2023-05-12T02:31:14.432Z,37.76
2023-05-12T02:32:14.433Z,37.75
2023-05-12T02:33:14.508Z,37.73
2023-05-12T02:34:14.651Z,37.75
2023-05-12T02:35:14.673Z,37.77
2023-05-12T02:36:14.623Z,37.77
2023-05-12T02:37:14.580Z,37.77
2023-05-12T02:38:14.651Z,37.77
2023-05-12T02:39:14.644Z,37.77
2023-05-12T02:40:14.666Z,37.79
2023-05-12T02:41:14.687Z,37.77
2023-05-12T02:42:14.720Z,37.78
2023-05-12T02:43:14.779Z,37.79
2023-05-12T02:44:14.903Z,37.79
2023-05-12T02:45:14.918Z,37.78
2023-05-12T02:46:14.897Z,37.77
2023-05-12T02:47:14.851Z,37.78
2023-05-12T02:48:14.906Z,37.80
2023-05-12T02:49:14.952Z,37.77
2023-05-12T02:50:14.993Z,37.80
2023-05-12T02:51:15.004Z,37.78
2023-05-12T02:52:15.032Z,37.77
2023-05-12T02:53:15.093Z,37.79
2023-05-12T02:54:15.088Z,37.79
2023-05-12T02:55:15.161Z,37.78
2023-05-12T02:56:15.182Z,37.80
2023-05-12T02:57:15.219Z,37.78
2023-05-12T02:58:15.243Z,37.79
2023-05-12T02:59:15.226Z,37.80
2023-05-12T03:00:15.788Z,37.81
2023-05-12T03:01:15.564Z,37.80
2023-05-12T03:02:15.348Z,37.81
2023-05-12T03:03:15.405Z,37.80
2023-05-12T03:04:15.299Z,37.82
2023-05-12T03:05:15.338Z,37.81
2023-05-12T03:06:15.410Z,37.83
2023-05-12T03:07:15.469Z,37.82
2023-05-12T03:08:15.446Z,37.80
2023-05-12T03:09:15.461Z,37.81
2023-05-12T03:10:15.478Z,37.81
2023-05-12T03:11:15.506Z,37.83
2023-05-12T03:12:15.507Z,37.82
2023-05-12T03:13:15.548Z,37.81
2023-05-12T03:14:15.613Z,37.84
2023-05-12T03:15:15.646Z,37.82
2023-05-12T03:16:16.488Z,37.84
2023-05-12T03:17:15.781Z,37.84
2023-05-12T03:18:15.786Z,37.82
2023-05-12T03:19:15.793Z,37.84
2023-05-12T03:20:15.852Z,37.85
2023-05-12T03:21:15.858Z,37.84
2023-05-12T03:22:15.867Z,37.82
2023-05-12T03:23:15.921Z,37.82
2023-05-12T03:24:16.008Z,37.82
2023-05-12T03:25:16.138Z,37.84
2023-05-12T03:26:16.002Z,37.86
2023-05-12T03:27:16.040Z,37.82
2023-05-12T03:28:16.081Z,37.83
2023-05-12T03:29:16.124Z,37.83
2023-05-12T03:30:16.121Z,37.84
2023-05-12T03:31:16.186Z,37.84
2023-05-12T03:32:16.188Z,37.85
2023-05-12T03:33:16.190Z,37.85
2023-05-12T03:34:16.257Z,37.82
2023-05-12T03:35:16.244Z,37.84
2023-05-12T03:36:16.283Z,37.85
2023-05-12T03:37:16.334Z,37.84
2023-05-12T03:38:16.333Z,37.86
2023-05-12T03:39:16.389Z,37.86
2023-05-12T03:40:16.381Z,37.86
2023-05-12T03:41:16.457Z,37.87
2023-05-12T03:42:16.533Z,37.86
2023-05-12T03:43:16.528Z,37.86
2023-05-12T03:44:16.507Z,37.86
2023-05-12T03:45:16.523Z,37.88
2023-05-12T03:46:16.662Z,37.86
2023-05-12T03:47:16.671Z,37.87
2023-05-12T03:48:16.700Z,37.88
2023-05-12T03:49:16.638Z,37.87
2023-05-12T03:50:16.724Z,37.86
2023-05-12T03:51:16.703Z,37.85
2023-05-12T03:52:16.727Z,37.88
2023-05-12T03:53:16.786Z,37.87
2023-05-12T03:54:16.815Z,37.87
2023-05-12T03:55:16.842Z,37.87
2023-05-12T03:56:16.863Z,37.88
2023-05-12T03:57:16.917Z,37.86
2023-05-12T03:58:16.972Z,37.88
2023-05-12T03:59:16.981Z,37.87
2023-05-12T04:00:17.016Z,37.86
2023-05-12T04:01:17.001Z,37.88
2023-05-12T04:02:17.118Z,37.85
2023-05-12T04:03:17.263Z,37.89
2023-05-12T04:04:17.210Z,37.87
2023-05-12T04:05:17.154Z,37.88
2023-05-12T04:06:17.138Z,37.87
2023-05-12T04:07:17.182Z,37.91
2023-05-12T04:08:17.253Z,37.89
2023-05-12T04:09:17.317Z,37.87
2023-05-12T04:10:17.400Z,37.87
2023-05-12T04:11:17.331Z,37.87
2023-05-12T04:12:17.422Z,37.86
2023-05-12T04:13:17.389Z,37.85
2023-05-12T04:14:17.444Z,37.86
2023-05-12T04:15:17.450Z,37.83
2023-05-12T04:16:17.564Z,37.83
2023-05-12T04:17:17.592Z,37.85
2023-05-12T04:18:17.602Z,37.84
2023-05-12T04:19:17.595Z,37.81
2023-05-12T04:20:17.858Z,37.79
2023-05-12T04:21:17.623Z,37.82
2023-05-12T04:22:17.696Z,37.79
2023-05-12T04:23:17.726Z,37.81
2023-05-12T04:24:17.740Z,37.79
2023-05-12T04:25:17.796Z,37.76
2023-05-12T04:26:17.833Z,37.75
2023-05-12T04:27:17.844Z,37.76
2023-05-12T04:28:17.932Z,37.79
2023-05-12T04:29:17.911Z,37.73
2023-05-12T04:30:18.032Z,37.75
2023-05-12T04:31:17.995Z,37.70
2023-05-12T04:32:18.073Z,37.70
2023-05-12T04:33:18.037Z,37.67
2023-05-12T04:34:18.194Z,37.67
2023-05-12T04:35:18.103Z,37.67
2023-05-12T04:36:18.128Z,37.66
2023-05-12T04:37:18.179Z,37.65
2023-05-12T04:38:18.221Z,37.66
2023-05-12T04:39:18.209Z,37.63
2023-05-12T04:40:18.507Z,37.64
2023-05-12T04:41:18.267Z,37.63
2023-05-12T04:42:18.329Z,37.66
2023-05-12T04:44:18.370Z,37.65
2023-05-12T04:45:18.561Z,37.66
2023-05-12T04:46:18.398Z,37.65
2023-05-12T04:47:18.388Z,37.66
2023-05-12T04:48:18.352Z,37.65
2023-05-12T04:49:18.328Z,37.67
2023-05-12T04:50:18.363Z,37.69
2023-05-12T04:51:18.315Z,37.66
2023-05-12T04:52:18.336Z,37.68
2023-05-12T04:53:18.336Z,37.68
2023-05-12T04:54:18.310Z,37.66
2023-05-12T04:55:18.485Z,37.67
2023-05-12T04:56:18.306Z,37.67
2023-05-12T04:57:18.306Z,37.67
2023-05-12T04:58:18.294Z,37.67
2023-05-12T04:59:18.299Z,37.69
2023-05-12T05:00:18.280Z,37.68
2023-05-12T05:01:18.337Z,37.67
2023-05-12T05:02:18.285Z,37.67
2023-05-12T05:03:18.312Z,37.70
2023-05-12T05:04:18.247Z,37.67
2023-05-12T05:05:18.328Z,37.67
2023-05-12T05:06:18.261Z,37.66
2023-05-12T05:07:18.224Z,37.68
2023-05-12T05:08:18.283Z,37.63
2023-05-12T05:09:18.359Z,37.66
2023-05-12T05:10:18.194Z,37.61
2023-05-12T05:11:18.206Z,37.60
2023-05-12T05:12:18.228Z,37.60
2023-05-12T05:13:18.141Z,37.61
2023-05-12T05:14:18.180Z,37.59
2023-05-12T05:15:18.988Z,37.62
2023-05-12T05:16:18.159Z,37.63
2023-05-12T05:17:18.119Z,37.61
2023-05-12T05:18:18.145Z,37.61
2023-05-12T05:19:24.426Z,37.60
2023-05-12T05:20:19.827Z,37.59
2023-05-12T05:21:18.107Z,37.56
2023-05-12T05:22:18.130Z,37.56
2023-05-12T05:23:18.139Z,37.58
2023-05-12T05:24:18.084Z,37.51
2023-05-12T05:25:18.354Z,37.53
2023-05-12T05:26:18.045Z,37.49
2023-05-12T05:27:18.062Z,37.51
2023-05-12T05:28:18.055Z,37.51
2023-05-12T05:29:18.070Z,37.50
2023-05-12T05:30:18.095Z,37.49
2023-05-12T05:31:18.093Z,37.49
2023-05-12T05:32:18.025Z,37.45
2023-05-12T05:33:18.046Z,37.43
2023-05-12T05:34:18.055Z,37.54
2023-05-12T05:35:18.206Z,37.59
2023-05-12T05:36:18.056Z,37.77
2023-05-12T05:37:18.024Z,37.69
2023-05-12T05:38:18.138Z,37.55
2023-05-12T05:39:18.081Z,37.33
2023-05-12T05:40:18.158Z,37.05
2023-05-12T05:41:18.194Z,36.91
2023-05-12T05:42:18.228Z,36.77
2023-05-12T05:43:18.381Z,36.69
2023-05-12T05:44:18.387Z,36.64
2023-05-12T05:45:18.735Z,37.05
2023-05-12T05:46:18.450Z,36.82
2023-05-12T05:47:18.491Z,36.85
2023-05-12T05:48:18.462Z,36.75
2023-05-12T05:49:18.509Z,36.78
2023-05-12T05:50:18.530Z,36.85
2023-05-12T05:51:18.602Z,36.94
2023-05-12T05:52:18.707Z,37.05
2023-05-12T05:53:19.344Z,37.12
2023-05-12T05:54:18.768Z,37.19
2023-05-12T05:55:19.113Z,37.34
2023-05-12T05:56:19.426Z,37.35
2023-05-12T05:57:18.952Z,37.38
2023-05-12T05:58:19.352Z,37.49
2023-05-12T05:59:19.033Z,37.41
2023-05-12T06:00:19.432Z,37.76
2023-05-12T06:01:19.099Z,37.92
2023-05-12T06:02:19.169Z,37.93
2023-05-12T06:03:19.211Z,38.11
2023-05-12T06:04:19.373Z,38.13
2023-05-12T06:05:19.314Z,38.24
2023-05-12T06:06:19.198Z,38.36
2023-05-12T06:07:20.536Z,38.41
2023-05-12T06:08:19.141Z,38.57
2023-05-12T06:09:19.149Z,38.65
2023-05-12T06:10:19.450Z,38.68
2023-05-12T06:11:19.268Z,38.77
2023-05-12T06:12:19.116Z,38.81
2023-05-12T06:13:19.161Z,38.92
2023-05-12T06:14:19.186Z,39.01
2023-05-12T06:15:19.345Z,39.05
2023-05-12T06:16:19.250Z,39.08
2023-05-12T06:17:19.370Z,39.16
2023-05-12T06:18:19.303Z,39.26
2023-05-12T06:19:19.424Z,39.42
2023-05-12T06:20:19.495Z,39.40
2023-05-12T06:21:19.503Z,39.44
2023-05-12T06:22:19.575Z,39.52
2023-05-12T06:23:19.619Z,39.58
2023-05-12T06:24:19.664Z,39.66
2023-05-12T06:25:19.965Z,39.78
2023-05-12T06:26:19.830Z,39.87
2023-05-12T06:27:19.887Z,39.94
2023-05-12T06:28:19.942Z,39.98
2023-05-12T06:29:19.998Z,40.02
2023-05-12T06:30:20.034Z,40.07
2023-05-12T06:31:20.126Z,40.16
2023-05-12T06:32:20.148Z,40.16
2023-05-12T06:33:20.188Z,40.31
2023-05-12T06:34:20.261Z,40.36
2023-05-12T06:35:20.511Z,40.43
2023-05-12T06:36:20.320Z,40.44
2023-05-12T06:37:20.338Z,40.53
2023-05-12T06:38:20.382Z,40.42
2023-05-12T06:39:20.434Z,40.20
2023-05-12T06:40:20.490Z,39.54
2023-05-12T06:41:20.515Z,39.21
2023-05-12T06:42:20.656Z,39.30
2023-05-12T06:43:20.891Z,39.06
2023-05-12T06:44:20.732Z,38.85
2023-05-12T06:45:21.163Z,38.33
2023-05-12T06:46:20.848Z,38.30
2023-05-12T06:47:20.825Z,38.01
2023-05-12T06:48:20.831Z,37.67
2023-05-12T06:49:21.398Z,37.91
2023-05-12T06:50:20.889Z,37.78
2023-05-12T06:51:21.427Z,37.64
2023-05-12T06:52:20.900Z,37.77
2023-05-12T06:53:21.844Z,37.47
2023-05-12T06:54:21.132Z,37.24
2023-05-12T06:55:21.338Z,37.33
2023-05-12T06:56:21.010Z,37.24
2023-05-12T06:57:21.109Z,37.67
2023-05-12T06:58:21.096Z,37.09
2023-05-12T06:59:21.459Z,37.22
2023-05-12T07:00:21.108Z,36.96
2023-05-12T07:01:21.143Z,37.00
2023-05-12T07:02:21.169Z,36.72
2023-05-12T07:03:21.191Z,36.64
2023-05-12T07:04:21.173Z,36.33
2023-05-12T07:05:21.519Z,36.35
2023-05-12T07:06:21.252Z,36.42
2023-05-12T07:07:21.289Z,36.19
2023-05-12T07:08:21.368Z,36.18
2023-05-12T07:09:21.378Z,36.11
2023-05-12T07:10:21.425Z,36.17
2023-05-12T07:11:21.452Z,36.10
2023-05-12T07:12:21.607Z,36.66
2023-05-12T07:13:21.547Z,36.78
2023-05-12T07:14:21.791Z,36.62
2023-05-12T07:15:21.852Z,36.58
2023-05-12T07:16:21.767Z,36.56
2023-05-12T07:17:21.888Z,36.40
2023-05-12T07:18:21.833Z,36.87
2023-05-12T07:19:21.835Z,37.01
2023-05-12T07:20:21.894Z,36.70
2023-05-12T07:21:21.923Z,36.74
2023-05-12T07:22:22.022Z,36.95
2023-05-12T07:23:22.861Z,36.68
2023-05-12T07:24:22.089Z,36.72
2023-05-12T07:25:22.330Z,36.66
2023-05-12T07:26:22.147Z,36.62
2023-05-12T07:27:22.223Z,36.38
2023-05-12T07:28:22.291Z,36.65
2023-05-12T07:29:22.322Z,36.34
2023-05-12T07:30:22.577Z,36.60
2023-05-12T07:31:23.760Z,36.48
2023-05-12T07:32:22.455Z,37.04
2023-05-12T07:33:22.518Z,36.68
2023-05-12T07:34:22.714Z,36.45
2023-05-12T07:35:22.715Z,36.08
2023-05-12T07:36:22.583Z,35.94
2023-05-12T07:37:22.597Z,35.82
2023-05-12T07:38:22.652Z,35.83
2023-05-12T07:39:22.659Z,35.74
2023-05-12T07:40:22.704Z,35.83
2023-05-12T07:41:22.761Z,35.71
2023-05-12T07:42:22.761Z,35.70
2023-05-12T07:43:22.791Z,35.62
2023-05-12T07:44:22.775Z,35.62
2023-05-12T07:45:22.795Z,35.54
2023-05-12T07:46:22.832Z,35.70
2023-05-12T07:47:22.817Z,35.87
2023-05-12T07:48:22.816Z,36.11
2023-05-12T07:49:22.808Z,35.99
2023-05-12T07:50:22.787Z,35.69
2023-05-12T07:51:22.787Z,35.80
2023-05-12T07:52:22.790Z,35.56
2023-05-12T07:53:22.799Z,35.33
2023-05-12T07:54:22.820Z,35.20
2023-05-12T07:55:23.071Z,35.43
2023-05-12T07:56:22.828Z,35.42
2023-05-12T07:57:22.792Z,35.38
2023-05-12T07:58:22.839Z,35.29
2023-05-12T07:59:22.889Z,35.50
2023-05-12T08:00:22.807Z,35.42
2023-05-12T08:01:22.859Z,35.48
2023-05-12T08:02:22.920Z,35.15
2023-05-12T08:03:22.973Z,35.12
2023-05-12T08:04:22.886Z,35.19
2023-05-12T08:05:22.820Z,35.03
2023-05-12T08:06:22.834Z,35.14
2023-05-12T08:07:22.943Z,35.11
2023-05-12T08:08:22.816Z,35.38
2023-05-12T08:09:23.923Z,35.06
2023-05-12T08:10:22.812Z,35.05
2023-05-12T08:11:22.878Z,35.16
2023-05-12T08:12:22.850Z,34.97
2023-05-12T08:13:22.837Z,35.04
2023-05-12T08:14:22.935Z,34.97
2023-05-12T08:15:22.970Z,34.93
2023-05-12T08:16:22.920Z,34.90
2023-05-12T08:17:22.998Z,35.02
2023-05-12T08:18:23.084Z,34.93
2023-05-12T08:19:23.016Z,34.76
2023-05-12T08:20:23.991Z,34.77
2023-05-12T08:21:23.030Z,34.75
2023-05-12T08:22:23.028Z,34.82
2023-05-12T08:23:23.123Z,34.81
2023-05-12T08:24:23.052Z,34.84
2023-05-12T08:25:23.093Z,34.71
2023-05-12T08:26:23.498Z,35.24
2023-05-12T08:27:23.068Z,35.04
2023-05-12T08:28:23.095Z,34.70
2023-05-12T08:29:23.210Z,34.35
2023-05-12T08:30:23.131Z,33.94
2023-05-12T08:31:23.196Z,33.44
2023-05-12T08:32:23.265Z,33.13
2023-05-12T08:33:23.176Z,33.19
2023-05-12T08:34:23.836Z,33.06
2023-05-12T08:35:23.234Z,32.97
2023-05-12T08:36:23.295Z,32.92
2023-05-12T08:37:23.349Z,32.99
2023-05-12T08:38:23.429Z,33.09
2023-05-12T08:39:23.433Z,33.04
2023-05-12T08:40:23.663Z,32.90
2023-05-12T08:41:23.565Z,33.11
2023-05-12T08:42:23.602Z,33.29
2023-05-12T08:43:23.651Z,33.21
2023-05-12T08:44:23.755Z,32.96
2023-05-12T08:45:23.777Z,32.66
2023-05-12T08:46:23.886Z,32.64
2023-05-12T08:47:23.983Z,32.50
2023-05-12T08:48:23.928Z,32.54
2023-05-12T08:49:23.962Z,32.44
2023-05-12T08:50:24.200Z,32.52
2023-05-12T08:51:23.955Z,32.63
2023-05-12T08:52:23.969Z,32.52
2023-05-12T08:53:24.061Z,32.68
2023-05-12T08:54:23.997Z,32.73
2023-05-12T08:55:27.395Z,32.77
2023-05-12T08:57:23.970Z,32.92
2023-05-12T08:58:33.944Z,32.93
2023-05-12T08:59:25.013Z,32.95
2023-05-12T09:00:24.108Z,32.99
2023-05-12T09:01:23.998Z,32.78
2023-05-12T09:02:24.384Z,32.68
2023-05-12T09:03:23.940Z,32.61
2023-05-12T09:04:23.947Z,32.60
2023-05-12T09:05:24.023Z,32.57
2023-05-12T09:06:23.907Z,32.61
2023-05-12T09:07:23.919Z,32.63
2023-05-12T09:08:23.918Z,32.65
2023-05-12T09:09:23.881Z,32.64
2023-05-12T09:11:23.883Z,32.61
2023-05-12T09:12:23.889Z,32.71
2023-05-12T09:13:24.486Z,32.81
2023-05-12T09:14:23.867Z,32.83
2023-05-12T09:15:23.867Z,32.82
2023-05-12T09:16:23.960Z,32.67
2023-05-12T09:17:23.969Z,32.81
2023-05-12T09:18:23.900Z,32.98
2023-05-12T09:19:23.840Z,33.05
2023-05-12T09:20:30.965Z,33.04
2023-05-12T09:21:24.849Z,32.80
2023-05-12T09:22:23.925Z,32.78
2023-05-12T09:23:23.813Z,32.98
2023-05-12T09:24:23.760Z,33.10
2023-05-12T09:25:23.846Z,33.07
2023-05-12T09:26:23.792Z,33.09
2023-05-12T09:27:23.792Z,33.17
2023-05-12T09:28:23.713Z,34.78
2023-05-12T09:29:30.621Z,34.66
2023-05-12T09:30:24.753Z,34.52
2023-05-12T09:31:23.796Z,35.05
2023-05-12T09:32:23.766Z,35.66
2023-05-12T09:33:23.726Z,36.21
2023-05-12T09:34:23.732Z,36.14
2023-05-12T09:35:23.710Z,36.41
2023-05-12T09:36:23.707Z,37.66
2023-05-12T09:37:23.713Z,37.40
2023-05-12T09:38:23.729Z,36.49
2023-05-12T09:39:23.770Z,36.33
2023-05-12T09:40:23.793Z,36.17
2023-05-12T09:41:23.843Z,36.09
2023-05-12T09:42:23.857Z,35.98
2023-05-12T09:43:24.160Z,36.06
2023-05-12T09:44:23.981Z,36.34
2023-05-12T09:45:23.877Z,36.30
2023-05-12T09:46:23.910Z,36.62
2023-05-12T09:47:23.917Z,36.89
2023-05-12T09:48:24.908Z,36.74
2023-05-12T09:49:23.852Z,37.19
2023-05-12T09:50:23.872Z,36.68
2023-05-12T09:51:23.876Z,35.93
2023-05-12T09:52:23.877Z,35.87
2023-05-12T09:53:24.047Z,35.84
2023-05-12T09:54:23.824Z,35.39
2023-05-12T09:55:23.831Z,35.16
2023-05-12T09:56:23.793Z,35.16
2023-05-12T09:57:23.797Z,35.08
2023-05-12T09:58:23.802Z,35.05
2023-05-12T09:59:23.822Z,34.90
2023-05-12T10:00:40.963Z,34.94
2023-05-12T10:01:25.047Z,34.99
2023-05-12T10:02:23.914Z,34.93
2023-05-12T10:03:23.818Z,34.74
2023-05-12T10:04:23.777Z,34.80
2023-05-12T10:05:23.755Z,34.92
2023-05-12T10:06:23.751Z,34.91
2023-05-12T10:07:23.751Z,34.93
2023-05-12T10:08:23.762Z,34.88
2023-05-12T10:09:23.733Z,34.89
2023-05-12T10:10:23.733Z,34.77
2023-05-12T10:11:23.746Z,34.73
2023-05-12T10:12:23.690Z,34.86
2023-05-12T10:13:23.687Z,34.76
2023-05-12T10:14:23.708Z,34.58
2023-05-12T10:15:23.659Z,34.33
2023-05-12T10:16:23.668Z,34.51
2023-05-12T10:17:23.688Z,34.35
2023-05-12T10:18:23.747Z,34.45
2023-05-12T10:19:23.729Z,34.76
2023-05-12T10:20:23.701Z,34.55
2023-05-12T10:21:23.748Z,34.95
2023-05-12T10:22:23.810Z,34.74
2023-05-12T10:23:23.883Z,34.72
2023-05-12T10:24:23.876Z,34.57
2023-05-12T10:25:24.097Z,34.77
2023-05-12T10:26:24.004Z,34.89
2023-05-12T10:27:24.069Z,35.13
2023-05-12T10:28:24.114Z,34.84
2023-05-12T10:29:24.161Z,34.48
2023-05-12T10:30:24.225Z,34.57
2023-05-12T10:31:24.409Z,34.43
2023-05-12T10:32:24.315Z,34.58
2023-05-12T10:33:24.309Z,34.65
2023-05-12T10:34:24.300Z,34.77
2023-05-12T10:35:24.321Z,34.79
2023-05-12T10:36:24.333Z,34.84
2023-05-12T10:37:24.323Z,34.97
2023-05-12T10:38:24.341Z,35.16
2023-05-12T10:39:24.271Z,35.10
2023-05-12T10:40:24.422Z,35.08
2023-05-12T10:41:24.345Z,35.08
2023-05-12T10:42:24.369Z,35.02
2023-05-12T10:43:24.430Z,34.97
2023-05-12T10:44:24.539Z,34.92
2023-05-12T10:45:25.078Z,35.03
2023-05-12T10:46:25.149Z,35.17
2023-05-12T10:47:24.659Z,35.11
2023-05-12T10:48:24.716Z,35.03
2023-05-12T10:49:24.765Z,34.99
2023-05-12T10:50:24.819Z,35.05
2023-05-12T10:51:25.031Z,35.25
2023-05-12T10:52:24.940Z,35.00
2023-05-12T10:54:25.080Z,34.91
2023-05-12T10:55:25.604Z,34.87
2023-05-12T10:56:25.494Z,34.95
2023-05-12T10:57:25.373Z,34.88
2023-05-12T10:58:25.946Z,35.03
2023-05-12T10:59:25.551Z,34.79
2023-05-12T11:00:25.827Z,34.81
2023-05-12T11:01:26.461Z,34.81
2023-05-12T11:02:26.909Z,34.81
2023-05-12T11:03:26.160Z,34.78
2023-05-12T11:05:26.112Z,34.63
2023-05-12T11:06:25.874Z,34.54
2023-05-12T11:07:26.524Z,35.20
2023-05-12T11:08:26.822Z,35.14
2023-05-12T11:09:26.933Z,35.16
2023-05-12T11:10:26.711Z,35.39
2023-05-12T11:11:26.067Z,35.58
2023-05-12T11:12:25.999Z,35.75
2023-05-12T11:13:26.045Z,35.77
2023-05-12T11:14:26.220Z,35.82
2023-05-12T11:15:26.175Z,35.88
2023-05-12T11:16:26.221Z,35.97
2023-05-12T11:17:26.565Z,36.15
2023-05-12T11:18:26.343Z,36.07
2023-05-12T11:19:26.351Z,36.33
2023-05-12T11:20:28.147Z,36.19
2023-05-12T11:21:26.356Z,35.93
2023-05-12T11:22:26.365Z,36.07
2023-05-12T11:23:26.341Z,35.96
2023-05-12T11:24:26.326Z,35.73
2023-05-12T11:25:26.576Z,35.72
2023-05-12T11:26:26.316Z,35.43
2023-05-12T11:27:26.311Z,35.01
2023-05-12T11:28:26.316Z,35.20
2023-05-12T11:29:26.315Z,35.49
2023-05-12T11:30:26.482Z,35.28
2023-05-12T11:31:26.328Z,35.31
2023-05-12T11:32:26.433Z,35.35
2023-05-12T11:33:26.238Z,35.35
2023-05-12T11:34:26.267Z,35.32
2023-05-12T11:35:26.256Z,35.27
2023-05-12T11:36:26.307Z,35.24
2023-05-12T11:37:26.269Z,35.25
2023-05-12T11:38:26.230Z,35.18
2023-05-12T11:39:26.220Z,35.16
2023-05-12T11:40:26.232Z,35.14
2023-05-12T11:41:26.337Z,35.12
2023-05-12T11:42:26.197Z,35.09
2023-05-12T11:43:26.199Z,35.06
2023-05-12T11:44:26.186Z,35.03
2023-05-12T11:45:26.156Z,34.99
2023-05-12T11:46:26.459Z,35.01
2023-05-12T11:47:26.318Z,34.99
2023-05-12T11:48:26.133Z,35.00
2023-05-12T11:49:26.156Z,35.00
2023-05-12T11:50:26.254Z,34.99
2023-05-12T11:51:26.157Z,35.01
2023-05-12T11:52:26.136Z,34.97
2023-05-12T11:53:27.137Z,34.99
2023-05-12T11:54:26.075Z,34.98
2023-05-12T11:55:26.097Z,35.02
2023-05-12T11:56:26.599Z,34.98
2023-05-12T11:57:26.117Z,34.95
2023-05-12T11:58:26.108Z,34.97
2023-05-12T11:59:26.057Z,34.96
2023-05-12T12:00:26.039Z,34.98
2023-05-12T12:01:26.093Z,34.98
2023-05-12T12:02:26.128Z,34.99
2023-05-12T12:03:26.189Z,35.00
2023-05-12T12:04:26.026Z,35.02
2023-05-12T12:05:26.014Z,35.02
2023-05-12T12:06:26.014Z,35.05
2023-05-12T12:07:26.019Z,35.02
2023-05-12T12:08:26.015Z,35.02
2023-05-12T12:09:25.986Z,35.01
2023-05-12T12:10:25.986Z,35.04
2023-05-12T12:11:25.983Z,35.07
2023-05-12T12:12:26.002Z,35.12
2023-05-12T12:13:26.027Z,35.10
2023-05-12T12:14:25.966Z,35.10
2023-05-12T12:15:25.978Z,35.11
2023-05-12T12:16:25.930Z,35.11
2023-05-12T12:17:26.073Z,35.09
2023-05-12T12:18:26.071Z,35.08
2023-05-12T12:19:25.905Z,35.08
2023-05-12T12:20:25.876Z,35.07
2023-05-12T12:21:25.892Z,35.08
2023-05-12T12:22:25.915Z,35.08
2023-05-12T12:23:25.882Z,35.08
2023-05-12T12:24:25.925Z,35.05
2023-05-12T12:25:25.951Z,35.07
2023-05-12T12:26:25.940Z,35.07
2023-05-12T12:27:25.955Z,35.02
2023-05-12T12:28:25.962Z,35.03
2023-05-12T12:29:26.010Z,35.04
2023-05-12T12:30:25.995Z,35.03
2023-05-12T12:31:26.039Z,35.05
2023-05-12T12:32:25.984Z,35.02
2023-05-12T12:33:25.996Z,35.01
2023-05-12T12:34:26.031Z,34.97
2023-05-12T12:35:26.067Z,34.94
2023-05-12T12:36:26.071Z,34.91
2023-05-12T12:37:26.065Z,34.92
2023-05-12T12:38:26.073Z,34.87
2023-05-12T12:39:26.062Z,34.86
2023-05-12T12:40:26.088Z,34.89
2023-05-12T12:41:26.094Z,34.87
2023-05-12T12:42:26.082Z,34.84
2023-05-12T12:43:26.106Z,34.79
2023-05-12T12:44:26.068Z,34.78
2023-05-12T12:45:26.550Z,34.74
2023-05-12T12:46:26.120Z,34.75
2023-05-12T12:47:26.181Z,34.73
2023-05-12T12:48:26.249Z,34.72
2023-05-12T12:49:26.150Z,34.71
2023-05-12T12:50:27.299Z,34.68
2023-05-12T12:51:28.529Z,34.68
2023-05-12T12:52:27.103Z,34.71
2023-05-12T12:53:26.112Z,34.71
2023-05-12T12:54:26.096Z,34.66
2023-05-12T12:55:26.175Z,34.63
2023-05-12T12:56:26.258Z,34.67
2023-05-12T12:57:26.410Z,34.72